createdAt,value
2019-01-09T00:02:03.891Z,0.50
2019-01-09T00:04:33.645Z,0.40
2019-01-09T00:07:03.099Z,0.57
2019-01-09T00:09:32.635Z,0.40
2019-01-09T00:12:02.080Z,0.57
2019-01-09T00:14:31.610Z,0.40
2019-01-09T00:17:01.503Z,0.60
2019-01-09T00:19:30.977Z,0.30
2019-01-09T00:22:00.412Z,0.57
2019-01-09T00:24:30.338Z,0.30
2019-01-09T00:26:59.782Z,0.40
2019-01-09T00:29:29.244Z,0.60
2019-01-09T00:31:58.714Z,0.70
2019-01-09T00:34:28.182Z,0.30
2019-01-09T00:36:59.266Z,0.40
2019-01-09T00:39:28.719Z,0.30
2019-01-09T00:41:58.156Z,0.53
2019-01-09T00:44:27.603Z,0.57
2019-01-09T00:46:57.053Z,0.50
2019-01-09T00:49:26.500Z,0.30
2019-01-09T00:51:56.021Z,0.50
2019-01-09T00:54:25.475Z,0.60
2019-01-09T00:56:54.914Z,0.43
2019-01-09T00:59:24.384Z,0.50
2019-01-09T01:02:03.110Z,0.40
2019-01-09T01:04:59.880Z,0.50
2019-01-09T01:07:53.330Z,0.40
2019-01-09T01:10:35.059Z,0.50
2019-01-09T01:13:19.682Z,0.50
2019-01-09T01:16:10.590Z,0.43
2019-01-09T01:19:04.145Z,0.60
2019-01-09T01:21:39.790Z,0.40
2019-01-09T01:24:25.004Z,0.40
2019-01-09T01:26:57.793Z,0.37
2019-01-09T01:29:42.457Z,0.50
2019-01-09T01:32:16.478Z,0.40
2019-01-09T01:34:51.887Z,0.40
2019-01-09T01:37:47.447Z,0.30
2019-01-09T01:40:28.869Z,0.30
2019-01-09T01:43:18.434Z,0.30
2019-01-09T01:45:53.965Z,0.23
2019-01-09T01:48:35.256Z,0.40
2019-01-09T01:51:23.088Z,0.33
2019-01-09T01:54:22.782Z,0.27
2019-01-09T01:56:58.245Z,0.30
2019-01-09T01:59:36.772Z,0.40
2019-01-09T02:02:26.738Z,0.37
2019-01-09T02:05:02.280Z,0.30
2019-01-09T02:08:09.941Z,0.20
2019-01-09T02:11:03.058Z,0.20
2019-01-09T02:13:48.592Z,0.37
2019-01-09T02:16:37.536Z,0.20
2019-01-09T02:19:16.022Z,0.20
2019-01-09T02:21:48.647Z,0.33
2019-01-09T02:24:42.331Z,0.40
2019-01-09T02:27:15.212Z,0.20
2019-01-09T02:29:56.716Z,0.30
2019-01-09T02:32:33.182Z,0.20
2019-01-09T02:35:02.623Z,0.30
2019-01-09T02:37:32.072Z,0.30
2019-01-09T02:40:01.557Z,0.27
2019-01-09T02:42:31.001Z,0.40
2019-01-09T02:45:00.798Z,0.30
2019-01-09T02:47:30.301Z,0.33
2019-01-09T02:49:59.806Z,0.20
2019-01-09T02:52:29.256Z,0.37
2019-01-09T02:54:58.757Z,0.30
2019-01-09T02:57:28.162Z,0.30
2019-01-09T02:59:57.928Z,0.20
2019-01-09T03:02:27.377Z,0.20
2019-01-09T03:04:56.841Z,0.30
2019-01-09T03:07:26.305Z,0.20
2019-01-09T03:09:55.815Z,0.17
2019-01-09T03:12:25.262Z,0.30
2019-01-09T03:14:54.993Z,0.30
2019-01-09T03:17:24.454Z,0.20
2019-01-09T03:19:53.911Z,0.33
2019-01-09T03:22:23.353Z,0.30
2019-01-09T03:24:52.842Z,0.33
2019-01-09T03:27:22.281Z,0.37
2019-01-09T03:29:51.755Z,0.40
2019-01-09T03:32:21.347Z,0.33
2019-01-09T03:34:50.798Z,0.30
2019-01-09T03:37:20.243Z,0.30
2019-01-09T03:39:50.036Z,0.37
2019-01-09T03:42:19.869Z,0.40
2019-01-09T03:44:49.327Z,0.40
2019-01-09T03:47:18.778Z,0.33
2019-01-09T03:49:48.234Z,0.30
2019-01-09T03:52:17.693Z,0.30
2019-01-09T03:54:47.163Z,0.40
2019-01-09T03:57:16.611Z,0.40
2019-01-09T03:59:46.096Z,0.40
2019-01-09T04:02:15.913Z,0.40
2019-01-09T04:04:45.372Z,0.20
2019-01-09T04:07:14.882Z,0.40
2019-01-09T04:09:44.356Z,0.30
2019-01-09T04:12:14.119Z,0.30
2019-01-09T04:14:43.615Z,0.30
2019-01-09T04:17:13.062Z,0.20
2019-01-09T04:19:42.968Z,0.30
2019-01-09T04:22:12.889Z,0.33
2019-01-09T04:24:42.343Z,0.63
2019-01-09T04:27:11.963Z,0.40
2019-01-09T04:29:41.831Z,0.33
2019-01-09T04:32:11.454Z,0.30
2019-01-09T04:34:41.207Z,0.40
2019-01-09T04:37:10.647Z,0.50
2019-01-09T04:39:40.108Z,0.50
2019-01-09T04:42:09.557Z,0.40
2019-01-09T04:44:39.021Z,0.40
2019-01-09T04:47:08.738Z,0.40
2019-01-09T04:49:38.220Z,0.40
2019-01-09T04:52:07.667Z,0.27
2019-01-09T04:54:37.387Z,0.40
2019-01-09T04:57:06.854Z,0.47
2019-01-09T04:59:36.301Z,0.30
2019-01-09T05:02:05.755Z,0.30
2019-01-09T05:04:35.235Z,0.50
2019-01-09T05:07:04.707Z,0.30
2019-01-09T05:09:34.176Z,0.20
2019-01-09T05:12:04.006Z,0.30
2019-01-09T05:14:33.455Z,0.27
2019-01-09T05:17:03.230Z,0.30
2019-01-09T05:19:32.900Z,0.30
2019-01-09T05:22:02.329Z,0.43
2019-01-09T05:24:31.952Z,0.33
2019-01-09T05:27:01.413Z,0.50
2019-01-09T05:29:31.154Z,0.30
2019-01-09T05:32:00.609Z,0.43
2019-01-09T05:34:30.370Z,0.30
2019-01-09T05:36:59.985Z,0.30
2019-01-09T05:39:29.613Z,0.30
2019-01-09T05:41:59.321Z,0.40
2019-01-09T05:44:28.766Z,0.30
2019-01-09T05:46:58.278Z,0.40
2019-01-09T05:49:27.723Z,0.30
2019-01-09T05:51:57.704Z,0.40
2019-01-09T05:54:27.156Z,0.33
2019-01-09T05:56:56.628Z,0.57
2019-01-09T05:59:26.076Z,0.40
2019-01-09T06:01:55.526Z,0.50
2019-01-09T06:04:25.751Z,0.50
2019-01-09T06:06:55.255Z,0.50
2019-01-09T06:09:26.072Z,0.50
2019-01-09T06:11:55.802Z,0.30
2019-01-09T06:14:25.262Z,0.20
2019-01-09T06:16:55.068Z,0.20
2019-01-09T06:19:24.581Z,0.30
2019-01-09T06:21:54.107Z,0.30
2019-01-09T06:24:23.973Z,0.60
2019-01-09T06:26:53.632Z,0.43
2019-01-09T06:29:23.393Z,0.60
2019-01-09T06:31:53.317Z,0.60
2019-01-09T06:34:22.784Z,0.30
2019-01-09T06:36:52.309Z,0.40
2019-01-09T06:39:21.746Z,0.40
2019-01-09T06:41:51.546Z,0.40
2019-01-09T06:44:22.761Z,0.40
2019-01-09T06:46:52.351Z,0.57
2019-01-09T06:49:21.841Z,0.30
2019-01-09T06:51:51.313Z,0.53
2019-01-09T06:54:21.124Z,0.30
2019-01-09T06:56:50.578Z,0.50
2019-01-09T06:59:20.027Z,0.30
2019-01-09T07:01:49.843Z,0.47
2019-01-09T07:04:19.288Z,0.63
2019-01-09T07:06:50.321Z,0.40
2019-01-09T07:09:19.776Z,0.60
2019-01-09T07:11:49.246Z,0.60
2019-01-09T07:14:18.690Z,0.30
2019-01-09T07:16:48.181Z,0.40
2019-01-09T07:19:18.029Z,0.53
2019-01-09T07:21:47.744Z,0.30
2019-01-09T07:24:17.208Z,0.60
2019-01-09T07:26:46.676Z,0.50
2019-01-09T07:29:16.233Z,0.40
2019-01-09T07:31:46.066Z,0.40
2019-01-09T07:34:15.896Z,0.50
2019-01-09T07:36:45.364Z,0.60
2019-01-09T07:39:14.806Z,0.60
2019-01-09T07:41:44.292Z,0.33
2019-01-09T07:44:13.737Z,0.60
2019-01-09T07:46:43.195Z,0.43
2019-01-09T07:49:12.639Z,0.40
2019-01-09T07:51:42.098Z,0.40
2019-01-09T07:54:11.535Z,0.60
2019-01-09T07:56:41.002Z,0.50
2019-01-09T07:59:10.448Z,0.50
2019-01-09T08:01:39.917Z,0.23
2019-01-09T08:04:09.362Z,0.40
2019-01-09T08:06:38.816Z,0.40
2019-01-09T08:09:08.284Z,0.40
2019-01-09T08:11:38.061Z,0.50
2019-01-09T08:14:07.537Z,0.40
2019-01-09T08:16:36.997Z,0.60
2019-01-09T08:19:06.439Z,0.50
2019-01-09T08:21:36.184Z,0.40
2019-01-09T08:24:05.625Z,0.60
2019-01-09T08:26:35.091Z,0.33
2019-01-09T08:29:04.530Z,0.33
2019-01-09T08:31:34.108Z,0.50
2019-01-09T08:34:03.939Z,0.50
2019-01-09T08:36:33.669Z,0.53
2019-01-09T08:39:04.063Z,0.50
2019-01-09T08:41:33.999Z,0.50
2019-01-09T08:44:03.448Z,0.53
2019-01-09T08:46:32.911Z,0.50
2019-01-09T08:49:02.809Z,0.33
2019-01-09T08:51:32.265Z,0.30
2019-01-09T08:54:01.716Z,0.40
2019-01-09T08:56:31.181Z,0.27
2019-01-09T08:59:00.636Z,0.43
2019-01-09T09:01:30.097Z,0.40
2019-01-09T09:03:59.617Z,0.50
2019-01-09T09:06:29.100Z,0.40
2019-01-09T09:08:59.318Z,0.60
2019-01-09T09:11:29.007Z,0.47
2019-01-09T09:13:58.535Z,0.40
2019-01-09T09:16:36.385Z,0.60
2019-01-09T09:18:59.213Z,0.50
2019-01-09T09:21:28.657Z,0.40
2019-01-09T09:23:58.286Z,0.60
2019-01-09T09:26:27.816Z,0.47
2019-01-09T09:28:57.557Z,0.30
2019-01-09T09:31:27.373Z,0.40
2019-01-09T09:33:57.184Z,0.40
2019-01-09T09:36:26.644Z,0.40
2019-01-09T09:38:56.120Z,0.40
2019-01-09T09:41:25.572Z,0.40
2019-01-09T09:43:55.045Z,0.70
2019-01-09T09:46:24.483Z,0.30
2019-01-09T09:48:54.279Z,0.40
2019-01-09T09:51:23.735Z,0.40
2019-01-09T09:53:53.454Z,0.43
2019-01-09T09:56:22.909Z,0.30
2019-01-09T09:58:52.382Z,0.53
2019-01-09T10:01:21.831Z,0.43
2019-01-09T10:03:51.363Z,0.50
2019-01-09T10:06:20.891Z,0.40
2019-01-09T10:08:50.364Z,0.30
2019-01-09T10:11:19.817Z,0.50
2019-01-09T10:13:49.498Z,0.50
2019-01-09T10:16:19.300Z,0.60
2019-01-09T10:18:48.790Z,0.50
2019-01-09T10:21:18.483Z,0.43
2019-01-09T10:23:48.326Z,0.50
2019-01-09T10:26:17.797Z,0.47
2019-01-09T10:28:47.262Z,0.33
2019-01-09T10:31:16.720Z,0.30
2019-01-09T10:33:46.186Z,0.50
2019-01-09T10:36:15.677Z,0.50
2019-01-09T10:38:45.135Z,0.40
2019-01-09T10:41:14.857Z,0.50
2019-01-09T10:43:44.587Z,0.50
2019-01-09T10:46:14.042Z,0.30
2019-01-09T10:48:43.505Z,0.37
2019-01-09T10:51:12.955Z,0.57
2019-01-09T10:53:42.429Z,0.20
2019-01-09T10:56:11.888Z,0.37
2019-01-09T10:58:41.616Z,0.40
2019-01-09T11:01:11.066Z,0.30
2019-01-09T11:03:40.932Z,0.60
2019-01-09T11:06:10.461Z,0.40
2019-01-09T11:08:46.917Z,0.50
2019-01-09T11:11:11.091Z,0.27
2019-01-09T11:13:40.547Z,0.30
2019-01-09T11:16:10.077Z,0.43
2019-01-09T11:18:39.532Z,0.50
2019-01-09T11:21:09.004Z,0.40
2019-01-09T11:23:38.462Z,0.50
2019-01-09T11:26:07.934Z,0.43
2019-01-09T11:28:37.373Z,0.40
2019-01-09T11:31:07.657Z,0.30
2019-01-09T11:33:37.189Z,0.37
2019-01-09T11:36:06.882Z,0.50
2019-01-09T11:38:36.364Z,0.57
2019-01-09T11:41:05.807Z,0.50
2019-01-09T11:43:35.403Z,0.40
2019-01-09T11:46:04.983Z,0.40
2019-01-09T11:48:34.803Z,0.40
2019-01-09T11:51:04.418Z,0.30
2019-01-09T11:53:33.925Z,0.40
2019-01-09T11:56:03.368Z,0.60
2019-01-09T11:58:32.836Z,0.50
2019-01-09T12:01:02.315Z,0.63
2019-01-09T12:03:31.799Z,0.40
2019-01-09T12:06:01.252Z,0.10
2019-01-09T12:08:30.724Z,0.40
2019-01-09T12:11:00.635Z,0.40
2019-01-09T12:13:30.259Z,0.20
2019-01-09T12:18:31.147Z,0.40
2019-01-09T12:21:00.595Z,0.40
2019-01-09T12:23:30.337Z,0.40
2019-01-09T12:25:59.777Z,0.30
2019-01-09T12:26:38.005Z,0.40
2019-01-09T12:28:29.568Z,0.40
2019-01-09T12:30:59.383Z,0.80
2019-01-09T12:33:29.106Z,0.50
2019-01-09T12:35:58.557Z,0.40
2019-01-09T12:38:28.022Z,0.30
2019-01-09T12:43:26.763Z,0.50
2019-01-09T12:45:56.216Z,0.30
2019-01-09T12:48:25.943Z,0.40
2019-01-09T12:50:55.355Z,0.43
2019-01-09T12:53:33.588Z,0.27
2019-01-09T12:55:56.015Z,0.43
2019-01-09T12:58:25.711Z,0.40
2019-01-09T13:00:55.740Z,0.43
2019-01-09T13:03:25.195Z,0.60
2019-01-09T13:05:55.010Z,0.43
2019-01-09T13:08:24.632Z,0.40
2019-01-09T13:10:54.092Z,0.40
2019-01-09T13:13:23.554Z,0.40
2019-01-09T13:15:52.989Z,0.50
2019-01-09T13:18:22.444Z,0.60
2019-01-09T13:20:52.369Z,0.50
2019-01-09T13:23:21.805Z,0.60
2019-01-09T13:25:51.261Z,0.60
2019-01-09T13:28:20.686Z,0.50
2019-01-09T13:30:53.478Z,0.37
2019-01-09T13:33:21.578Z,0.47
2019-01-09T13:35:51.051Z,0.40
2019-01-09T13:38:20.492Z,0.60
2019-01-09T13:40:49.948Z,0.33
2019-01-09T13:43:19.396Z,0.30
2019-01-09T13:45:48.858Z,0.47
2019-01-09T13:48:18.301Z,0.23
2019-01-09T13:50:48.208Z,0.67
2019-01-09T13:53:17.652Z,0.30
2019-01-09T13:55:47.442Z,0.33
2019-01-09T13:58:16.884Z,0.33
2019-01-09T14:00:46.365Z,0.30
2019-01-09T14:03:15.874Z,0.73
2019-01-09T14:05:45.332Z,0.57
2019-01-09T14:08:14.774Z,0.50
2019-01-09T14:10:44.224Z,0.40
2019-01-09T14:13:13.676Z,0.63
2019-01-09T14:15:43.131Z,0.20
2019-01-09T14:18:12.585Z,0.53
2019-01-09T14:20:42.034Z,0.40
2019-01-09T14:23:11.676Z,0.40
2019-01-09T14:25:41.098Z,0.70
2019-01-09T14:28:10.603Z,0.43
2019-01-09T14:30:40.134Z,0.30
2019-01-09T14:33:09.579Z,0.40
2019-01-09T14:35:39.089Z,0.50
2019-01-09T14:38:08.561Z,0.40
2019-01-09T14:40:38.305Z,0.50
2019-01-09T14:43:08.012Z,0.40
2019-01-09T14:45:37.458Z,0.40
2019-01-09T14:48:07.223Z,0.50
2019-01-09T14:50:36.685Z,0.67
2019-01-09T14:53:06.155Z,0.50
2019-01-09T14:55:35.587Z,0.40
2019-01-09T14:58:05.115Z,0.60
2019-01-09T15:00:34.557Z,0.47
2019-01-09T15:03:04.000Z,0.30
2019-01-09T15:05:33.468Z,0.30
2019-01-09T15:08:02.904Z,0.50
2019-01-09T15:10:32.354Z,0.43
2019-01-09T15:13:01.797Z,0.40
2019-01-09T15:15:31.569Z,0.60
2019-01-09T15:18:01.000Z,0.30
2019-01-09T15:20:31.234Z,0.40
2019-01-09T15:23:00.664Z,0.53
2019-01-09T15:25:30.121Z,1.00
2019-01-09T15:27:59.615Z,0.67
2019-01-09T15:30:29.991Z,0.50
2019-01-09T15:32:59.425Z,0.50
2019-01-09T15:35:28.880Z,0.50
2019-01-09T15:37:59.295Z,0.50
2019-01-09T15:40:29.786Z,0.60
2019-01-09T15:42:59.225Z,0.50
2019-01-09T15:45:28.675Z,0.40
2019-01-09T15:47:58.427Z,0.40
2019-01-09T15:50:28.753Z,0.70
2019-01-09T15:52:58.178Z,0.40
2019-01-09T15:55:27.630Z,0.50
2019-01-09T15:57:57.243Z,0.40
2019-01-09T16:00:38.624Z,0.40
2019-01-09T16:03:08.122Z,1.10
2019-01-09T16:05:37.593Z,0.67
2019-01-09T16:08:07.117Z,1.03
2019-01-09T16:10:36.583Z,0.50
2019-01-09T16:13:06.102Z,0.60
2019-01-09T16:15:35.554Z,0.47
2019-01-09T16:18:05.285Z,0.50
2019-01-09T16:20:34.751Z,0.50
2019-01-09T16:23:04.292Z,0.70
2019-01-09T16:25:33.724Z,0.70
2019-01-09T16:28:03.254Z,0.60
2019-01-09T16:30:35.891Z,0.30
2019-01-09T16:33:05.371Z,0.70
2019-01-09T16:35:36.849Z,0.90
2019-01-09T16:38:06.310Z,0.80
2019-01-09T16:40:35.765Z,0.77
2019-01-09T16:43:06.414Z,1.30
2019-01-09T16:45:36.183Z,0.93
2019-01-09T16:48:05.882Z,0.90
2019-01-09T16:50:35.704Z,0.50
2019-01-09T16:53:05.530Z,0.73
2019-01-09T16:55:34.979Z,0.40
2019-01-09T16:58:04.694Z,0.50
2019-01-09T17:00:36.992Z,0.70
2019-01-09T17:03:06.505Z,0.70
2019-01-09T17:05:36.428Z,0.70
2019-01-09T17:08:06.532Z,0.70
2019-01-09T17:10:35.985Z,0.67
2019-01-09T17:13:05.765Z,0.50
2019-01-09T17:15:35.567Z,0.77
2019-01-09T17:18:05.698Z,0.50
2019-01-09T17:20:35.159Z,0.40
2019-01-09T17:23:04.891Z,0.50
2019-01-09T17:25:34.678Z,0.57
2019-01-09T17:28:04.434Z,0.50
2019-01-09T17:30:33.905Z,0.43
2019-01-09T17:33:03.350Z,0.60
2019-01-09T17:35:33.171Z,0.67
2019-01-09T17:38:02.610Z,0.60
2019-01-09T17:40:40.657Z,0.50
2019-01-09T17:43:03.196Z,0.50
2019-01-09T17:45:32.647Z,0.63
2019-01-09T17:48:02.085Z,0.70
2019-01-09T17:50:37.044Z,0.40
2019-01-09T17:53:07.007Z,0.57
2019-01-09T17:55:36.564Z,0.50
2019-01-09T17:58:06.072Z,0.50
2019-01-09T18:00:40.850Z,0.40
2019-01-09T18:03:10.299Z,0.40
2019-01-09T18:05:39.747Z,0.60
2019-01-09T18:08:10.860Z,0.50
2019-01-09T18:10:49.790Z,0.40
2019-01-09T18:13:11.730Z,0.77
2019-01-09T18:15:41.190Z,1.13
2019-01-09T18:18:10.706Z,0.73
2019-01-09T18:20:40.139Z,0.60
2019-01-09T18:23:09.593Z,0.63
2019-01-09T18:25:39.030Z,0.50
2019-01-09T18:28:08.550Z,0.40
2019-01-09T18:30:43.718Z,0.40
2019-01-09T18:33:19.498Z,0.57
2019-01-09T18:36:00.927Z,0.60
2019-01-09T18:38:54.610Z,0.50
2019-01-09T18:41:27.237Z,0.50
2019-01-09T18:44:08.690Z,0.70
2019-01-09T18:46:47.460Z,0.50
2019-01-09T18:49:25.688Z,0.50
2019-01-09T18:52:16.201Z,0.40
2019-01-09T18:54:45.905Z,0.30
2019-01-09T18:57:16.990Z,0.40
2019-01-09T18:59:46.434Z,0.57
2019-01-09T19:02:16.443Z,0.80
2019-01-09T19:04:45.987Z,0.50
2019-01-09T19:07:15.525Z,0.60
2019-01-09T19:09:45.019Z,0.73
2019-01-09T19:12:14.467Z,0.60
2019-01-09T19:14:44.235Z,0.60
2019-01-09T19:17:13.872Z,0.53
2019-01-09T19:19:43.643Z,0.50
2019-01-09T19:22:13.177Z,0.73
2019-01-09T19:24:42.622Z,0.57
2019-01-09T19:27:12.156Z,0.60
2019-01-09T19:29:41.605Z,0.73
2019-01-09T19:32:14.170Z,0.60
2019-01-09T19:34:43.787Z,0.60
2019-01-09T19:37:13.307Z,0.50
2019-01-09T19:39:42.752Z,0.40
2019-01-09T19:42:12.278Z,0.47
2019-01-09T19:44:41.745Z,0.60
2019-01-09T19:47:11.219Z,0.70
2019-01-09T19:49:40.724Z,0.60
2019-01-09T19:52:10.506Z,0.60
2019-01-09T19:54:39.940Z,0.70
2019-01-09T19:57:09.817Z,0.40
2019-01-09T19:59:39.262Z,0.57
2019-01-09T20:02:15.987Z,0.60
2019-01-09T20:04:45.544Z,0.40
2019-01-09T20:07:15.517Z,0.63
2019-01-09T20:09:45.041Z,0.60
2019-01-09T20:12:14.463Z,0.60
2019-01-09T20:14:44.293Z,0.57
2019-01-09T20:17:14.139Z,0.50
2019-01-09T20:19:43.591Z,0.57
2019-01-09T20:22:14.740Z,0.70
2019-01-09T20:24:44.220Z,0.70
2019-01-09T20:27:13.735Z,0.60
2019-01-09T20:29:43.160Z,0.60
2019-01-09T20:32:12.733Z,0.60
2019-01-09T20:34:42.169Z,0.67
2019-01-09T20:37:12.003Z,0.70
2019-01-09T20:39:41.431Z,0.70
2019-01-09T20:42:10.938Z,0.63
2019-01-09T20:44:40.713Z,0.57
2019-01-09T20:47:10.990Z,0.40
2019-01-09T20:49:40.865Z,0.50
2019-01-09T20:52:10.589Z,0.50
2019-01-09T20:54:40.078Z,0.60
2019-01-09T20:57:11.356Z,0.60
2019-01-09T20:59:42.614Z,0.60
2019-01-09T21:02:12.218Z,0.60
2019-01-09T21:04:42.047Z,0.57
2019-01-09T21:07:11.722Z,0.60
2019-01-09T21:09:41.284Z,0.67
2019-01-09T21:12:11.072Z,0.60
2019-01-09T21:14:40.670Z,0.60
2019-01-09T21:17:10.108Z,0.70
2019-01-09T21:19:39.849Z,0.70
2019-01-09T21:22:09.413Z,0.77
2019-01-09T21:24:38.858Z,0.63
2019-01-09T21:27:08.329Z,0.60
2019-01-09T21:29:37.791Z,0.60
2019-01-09T21:32:07.529Z,0.77
2019-01-09T21:34:37.186Z,0.53
2019-01-09T21:37:07.066Z,0.73
2019-01-09T21:39:36.658Z,0.70
2019-01-09T21:42:06.216Z,0.60
2019-01-09T21:44:35.685Z,0.60
2019-01-09T21:47:05.151Z,0.60
2019-01-09T21:49:34.594Z,0.70
2019-01-09T21:52:04.393Z,0.60
2019-01-09T21:54:33.971Z,0.50
2019-01-09T21:57:03.479Z,0.73
2019-01-09T21:59:33.044Z,0.40
2019-01-09T22:02:02.836Z,0.70
2019-01-09T22:04:32.284Z,0.60
2019-01-09T22:07:01.733Z,0.60
2019-01-09T22:09:31.561Z,0.70
2019-01-09T22:12:02.604Z,0.60
2019-01-09T22:14:32.388Z,0.63
2019-01-09T22:17:01.828Z,0.70
2019-01-09T22:19:31.623Z,0.53
2019-01-09T22:22:01.062Z,0.77
2019-01-09T22:24:30.624Z,0.67
2019-01-09T22:27:00.128Z,0.70
2019-01-09T22:29:29.709Z,0.67
2019-01-09T22:31:59.167Z,0.70
2019-01-09T22:34:28.676Z,0.70
2019-01-09T22:36:58.127Z,0.70
2019-01-09T22:39:27.577Z,0.93
2019-01-09T22:41:57.028Z,0.90
2019-01-09T22:44:26.542Z,0.80
2019-01-09T22:46:56.066Z,0.80
2019-01-09T22:49:25.532Z,0.90
2019-01-09T22:51:54.994Z,0.80
2019-01-09T22:54:24.449Z,0.80
2019-01-09T22:56:54.235Z,1.13
2019-01-09T22:59:23.706Z,0.90
2019-01-09T23:01:55.759Z,0.97
2019-01-09T23:04:25.344Z,0.90
2019-01-09T23:06:54.810Z,0.90
2019-01-09T23:09:24.328Z,1.10
2019-01-09T23:11:53.884Z,1.03
2019-01-09T23:14:23.551Z,1.10
2019-01-09T23:16:53.023Z,0.90
2019-01-09T23:19:22.696Z,1.03
2019-01-09T23:21:52.349Z,1.07
2019-01-09T23:24:21.810Z,0.90
2019-01-09T23:26:51.566Z,1.07
2019-01-09T23:29:21.289Z,0.83
2019-01-09T23:31:51.092Z,1.13
2019-01-09T23:34:20.583Z,1.00
2019-01-09T23:36:51.296Z,1.00
2019-01-09T23:39:20.762Z,1.07
2019-01-09T23:41:50.547Z,0.80
2019-01-09T23:44:20.010Z,1.00
2019-01-09T23:46:49.455Z,1.10
2019-01-09T23:49:19.092Z,0.80
2019-01-09T23:51:48.535Z,0.60
2019-01-09T23:54:18.032Z,0.63
2019-01-09T23:56:47.518Z,0.93
2019-01-09T23:59:16.988Z,0.60
